sensor_id;sensor_type;location;lat;lon;timestamp;pressure;altitude;pressure_sealevel;temperature;humidity
34031;BME280;20319;28.466;-16.274;2023-08-07T00:00:04;95471.97;;;18.41;100.00
34031;BME280;20319;28.466;-16.274;2023-08-07T00:02:30;95615.00;;;19.38;100.00
34031;BME280;20319;28.466;-16.274;2023-08-07T00:04:56;95477.38;;;18.63;100.00
34031;BME280;20319;28.466;-16.274;2023-08-07T00:07:23;95593.00;;;19.48;100.00
34031;BME280;20319;28.466;-16.274;2023-08-07T00:09:50;95483.41;;;18.82;100.00
34031;BME280;20319;28.466;-16.274;2023-08-07T00:12:15;95622.84;;;19.70;100.00
34031;BME280;20319;28.466;-16.274;2023-08-07T00:14:41;95617.63;;;19.82;100.00
34031;BME280;20319;28.466;-16.274;2023-08-07T00:17:06;95617.63;;;19.82;100.00
34031;BME280;20319;28.466;-16.274;2023-08-07T00:19:33;95632.84;;;19.91;100.00
34031;BME280;20319;28.466;-16.274;2023-08-07T00:21:59;95606.72;;;19.73;100.00
34031;BME280;20319;28.466;-16.274;2023-08-07T00:24:25;95551.63;;;19.51;100.00
34031;BME280;20319;28.466;-16.274;2023-08-07T00:26:50;95438.22;;;18.78;100.00
34031;BME280;20319;28.466;-16.274;2023-08-07T00:29:16;95615.72;;;19.91;100.00
34031;BME280;20319;28.466;-16.274;2023-08-07T00:31:41;95629.13;;;19.87;100.00
34031;BME280;20319;28.466;-16.274;2023-08-07T00:34:07;95456.00;;;18.92;100.00
34031;BME280;20319;28.466;-16.274;2023-08-07T00:36:34;95612.31;;;19.77;100.00
34031;BME280;20319;28.466;-16.274;2023-08-07T00:39:01;95484.34;;;19.08;100.00
34031;BME280;20319;28.466;-16.274;2023-08-07T00:41:29;95566.84;;;19.60;100.00
34031;BME280;20319;28.466;-16.274;2023-08-07T00:43:54;95588.81;;;19.81;100.00
34031;BME280;20319;28.466;-16.274;2023-08-07T00:46:20;95575.50;;;19.71;100.00
34031;BME280;20319;28.466;-16.274;2023-08-07T00:48:46;95524.16;;;19.44;100.00
34031;BME280;20319;28.466;-16.274;2023-08-07T00:51:12;95583.53;;;19.76;100.00
34031;BME280;20319;28.466;-16.274;2023-08-07T00:53:38;95585.66;;;19.87;100.00
34031;BME280;20319;28.466;-16.274;2023-08-07T00:56:05;95578.94;;;19.85;100.00
34031;BME280;20319;28.466;-16.274;2023-08-07T00:58:31;95547.38;;;19.67;100.00
34031;BME280;20319;28.466;-16.274;2023-08-07T01:00:57;95542.09;;;19.62;100.00
34031;BME280;20319;28.466;-16.274;2023-08-07T01:03:24;95442.78;;;18.99;100.00
34031;BME280;20319;28.466;-16.274;2023-08-07T01:05:50;95559.56;;;19.78;100.00
34031;BME280;20319;28.466;-16.274;2023-08-07T01:08:16;95427.25;;;18.91;100.00
34031;BME280;20319;28.466;-16.274;2023-08-07T01:13:28;95533.81;;;19.67;100.00
34031;BME280;20319;28.466;-16.274;2023-08-07T01:15:59;95540.19;;;19.62;100.00
34031;BME280;20319;28.466;-16.274;2023-08-07T01:18:26;95370.22;;;18.74;100.00
34031;BME280;20319;28.466;-16.274;2023-08-07T01:20:52;95518.91;;;19.56;100.00
34031;BME280;20319;28.466;-16.274;2023-08-07T01:23:17;95528.09;;;19.77;100.00
34031;BME280;20319;28.466;-16.274;2023-08-07T01:25:43;95521.03;;;19.76;100.00
34031;BME280;20319;28.466;-16.274;2023-08-07T01:28:17;95482.16;;;19.58;100.00
34031;BME280;20319;28.466;-16.274;2023-08-07T01:30:50;95524.59;;;19.85;100.00
34031;BME280;20319;28.466;-16.274;2023-08-07T01:33:27;95394.78;;;19.08;100.00
34031;BME280;20319;28.466;-16.274;2023-08-07T01:35:58;95509.38;;;19.84;100.00
34031;BME280;20319;28.466;-16.274;2023-08-07T01:38:26;95401.50;;;19.20;100.00
34031;BME280;20319;28.466;-16.274;2023-08-07T01:40:53;95412.41;;;19.28;100.00
34031;BME280;20319;28.466;-16.274;2023-08-07T01:43:19;95529.59;;;20.08;100.00
34031;BME280;20319;28.466;-16.274;2023-08-07T01:45:45;95513.41;;;20.03;100.00
34031;BME280;20319;28.466;-16.274;2023-08-07T01:48:11;95527.34;;;20.10;100.00
34031;BME280;20319;28.466;-16.274;2023-08-07T01:50:38;95523.84;;;20.10;100.00
34031;BME280;20319;28.466;-16.274;2023-08-07T01:53:04;95523.84;;;20.10;100.00
34031;BME280;20319;28.466;-16.274;2023-08-07T01:55:29;95338.53;;;18.92;100.00
34031;BME280;20319;28.466;-16.274;2023-08-07T01:57:55;95350.19;;;18.92;100.00
34031;BME280;20319;28.466;-16.274;2023-08-07T02:00:21;95506.34;;;19.85;100.00
34031;BME280;20319;28.466;-16.274;2023-08-07T02:02:47;95496.78;;;19.88;100.00
34031;BME280;20319;28.466;-16.274;2023-08-07T02:05:13;95349.56;;;18.95;100.00
34031;BME280;20319;28.466;-16.274;2023-08-07T02:07:40;95335.63;;;18.88;100.00
34031;BME280;20319;28.466;-16.274;2023-08-07T02:10:06;95528.13;;;19.94;100.00
34031;BME280;20319;28.466;-16.274;2023-08-07T02:12:32;95353.53;;;18.89;100.00
34031;BME280;20319;28.466;-16.274;2023-08-07T02:15:01;95484.25;;;19.70;100.00
34031;BME280;20319;28.466;-16.274;2023-08-07T02:17:27;95355.25;;;18.85;100.00
34031;BME280;20319;28.466;-16.274;2023-08-07T02:19:53;95506.50;;;19.80;100.00
34031;BME280;20319;28.466;-16.274;2023-08-07T02:22:19;95493.19;;;19.62;100.00
34031;BME280;20319;28.466;-16.274;2023-08-07T02:24:45;95349.50;;;18.78;100.00
34031;BME280;20319;28.466;-16.274;2023-08-07T02:27:10;95496.88;;;19.66;100.00
34031;BME280;20319;28.466;-16.274;2023-08-07T02:29:36;95328.16;;;18.55;100.00
34031;BME280;20319;28.466;-16.274;2023-08-07T02:32:02;95340.97;;;18.63;100.00
34031;BME280;20319;28.466;-16.274;2023-08-07T02:34:31;95335.19;;;18.56;100.00
34031;BME280;20319;28.466;-16.274;2023-08-07T02:36:58;95461.16;;;19.33;100.00
34031;BME280;20319;28.466;-16.274;2023-08-07T02:39:24;95497.31;;;19.51;100.00
34031;BME280;20319;28.466;-16.274;2023-08-07T02:41:50;95481.00;;;19.51;100.00
34031;BME280;20319;28.466;-16.274;2023-08-07T02:44:16;95436.94;;;19.14;100.00
34031;BME280;20319;28.466;-16.274;2023-08-07T02:46:43;95436.31;;;19.17;100.00
34031;BME280;20319;28.466;-16.274;2023-08-07T02:49:09;95469.16;;;19.38;100.00
34031;BME280;20319;28.466;-16.274;2023-08-07T02:51:34;95350.88;;;18.67;100.00
34031;BME280;20319;28.466;-16.274;2023-08-07T02:54:00;95464.34;;;19.35;100.00
34031;BME280;20319;28.466;-16.274;2023-08-07T02:56:25;95471.69;;;19.35;100.00
34031;BME280;20319;28.466;-16.274;2023-08-07T02:58:51;95201.81;;;17.76;100.00
34031;BME280;20319;28.466;-16.274;2023-08-07T03:01:17;95350.41;;;18.65;100.00
34031;BME280;20319;28.466;-16.274;2023-08-07T03:03:43;95505.13;;;19.44;100.00
34031;BME280;20319;28.466;-16.274;2023-08-07T03:06:08;95480.06;;;19.55;100.00
34031;BME280;20319;28.466;-16.274;2023-08-07T03:08:34;95313.94;;;18.49;100.00
34031;BME280;20319;28.466;-16.274;2023-08-07T03:10:59;95489.16;;;19.51;100.00
34031;BME280;20319;28.466;-16.274;2023-08-07T03:13:26;95444.69;;;19.30;100.00
34031;BME280;20319;28.466;-16.274;2023-08-07T03:16:04;95480.88;;;19.56;100.00
34031;BME280;20319;28.466;-16.274;2023-08-07T03:18:30;95477.03;;;19.57;100.00
34031;BME280;20319;28.466;-16.274;2023-08-07T03:20:56;95480.56;;;19.57;100.00
34031;BME280;20319;28.466;-16.274;2023-08-07T03:23:23;95329.78;;;18.64;100.00
34031;BME280;20319;28.466;-16.274;2023-08-07T03:25:49;95330.72;;;18.51;100.00
34031;BME280;20319;28.466;-16.274;2023-08-07T03:28:14;95478.13;;;19.47;100.00
34031;BME280;20319;28.466;-16.274;2023-08-07T03:30:40;95338.25;;;18.63;100.00
34031;BME280;20319;28.466;-16.274;2023-08-07T03:33:06;95475.72;;;19.46;100.00
34031;BME280;20319;28.466;-16.274;2023-08-07T03:35:32;95341.72;;;18.55;100.00
34031;BME280;20319;28.466;-16.274;2023-08-07T03:37:57;95444.94;;;19.20;100.00
34031;BME280;20319;28.466;-16.274;2023-08-07T03:40:23;95475.03;;;19.32;100.00
34031;BME280;20319;28.466;-16.274;2023-08-07T03:42:49;95485.09;;;19.31;100.00
34031;BME280;20319;28.466;-16.274;2023-08-07T03:45:14;95492.91;;;19.33;100.00
34031;BME280;20319;28.466;-16.274;2023-08-07T03:47:40;95460.75;;;19.17;100.00
34031;BME280;20319;28.466;-16.274;2023-08-07T03:50:06;95474.38;;;19.26;100.00
34031;BME280;20319;28.466;-16.274;2023-08-07T03:52:32;95302.16;;;18.23;100.00
34031;BME280;20319;28.466;-16.274;2023-08-07T03:54:57;95444.09;;;19.10;100.00
34031;BME280;20319;28.466;-16.274;2023-08-07T03:57:23;95465.06;;;19.18;100.00
34031;BME280;20319;28.466;-16.274;2023-08-07T03:59:48;95441.69;;;19.00;100.00
34031;BME280;20319;28.466;-16.274;2023-08-07T04:02:14;95372.00;;;18.48;100.00
34031;BME280;20319;28.466;-16.274;2023-08-07T04:04:40;95459.25;;;19.03;100.00
34031;BME280;20319;28.466;-16.274;2023-08-07T04:07:05;95499.56;;;19.18;100.00
34031;BME280;20319;28.466;-16.274;2023-08-07T04:09:31;95430.09;;;18.86;100.00
34031;BME280;20319;28.466;-16.274;2023-08-07T04:11:57;95460.19;;;18.98;100.00
34031;BME280;20319;28.466;-16.274;2023-08-07T04:14:23;95454.09;;;18.93;100.00
34031;BME280;20319;28.466;-16.274;2023-08-07T04:16:49;95442.75;;;18.91;100.00
34031;BME280;20319;28.466;-16.274;2023-08-07T04:19:14;95439.47;;;18.72;100.00
34031;BME280;20319;28.466;-16.274;2023-08-07T04:21:40;95290.31;;;17.89;100.00
34031;BME280;20319;28.466;-16.274;2023-08-07T04:24:05;95486.06;;;19.04;100.00
34031;BME280;20319;28.466;-16.274;2023-08-07T04:26:36;95331.88;;;18.06;100.00
34031;BME280;20319;28.466;-16.274;2023-08-07T04:29:02;95345.78;;;18.13;100.00
34031;BME280;20319;28.466;-16.274;2023-08-07T04:31:27;95347.94;;;18.03;100.00
34031;BME280;20319;28.466;-16.274;2023-08-07T04:33:53;95460.38;;;18.71;100.00
34031;BME280;20319;28.466;-16.274;2023-08-07T04:36:18;95468.13;;;18.64;100.00
34031;BME280;20319;28.466;-16.274;2023-08-07T04:38:46;95469.25;;;18.63;100.00
34031;BME280;20319;28.466;-16.274;2023-08-07T04:41:11;95483.31;;;18.65;100.00
34031;BME280;20319;28.466;-16.274;2023-08-07T04:43:37;95478.63;;;18.57;100.00
34031;BME280;20319;28.466;-16.274;2023-08-07T04:46:03;95341.41;;;17.59;100.00
34031;BME280;20319;28.466;-16.274;2023-08-07T04:48:28;95474.69;;;18.41;100.00
34031;BME280;20319;28.466;-16.274;2023-08-07T04:50:54;95280.50;;;17.35;100.00
34031;BME280;20319;28.466;-16.274;2023-08-07T04:53:21;95474.81;;;18.58;100.00
34031;BME280;20319;28.466;-16.274;2023-08-07T04:55:46;95502.03;;;18.75;100.00
34031;BME280;20319;28.466;-16.274;2023-08-07T04:58:12;95483.94;;;18.62;100.00
34031;BME280;20319;28.466;-16.274;2023-08-07T05:00:37;95450.31;;;18.72;100.00
34031;BME280;20319;28.466;-16.274;2023-08-07T05:03:03;95475.97;;;18.96;100.00
34031;BME280;20319;28.466;-16.274;2023-08-07T05:05:29;95460.44;;;18.88;100.00
34031;BME280;20319;28.466;-16.274;2023-08-07T05:07:55;95487.06;;;19.08;100.00
34031;BME280;20319;28.466;-16.274;2023-08-07T05:10:20;95316.41;;;18.07;100.00
34031;BME280;20319;28.466;-16.274;2023-08-07T05:12:46;95467.19;;;18.99;100.00
34031;BME280;20319;28.466;-16.274;2023-08-07T05:15:12;95323.31;;;18.13;100.00
34031;BME280;20319;28.466;-16.274;2023-08-07T05:17:38;95455.09;;;19.05;100.00
34031;BME280;20319;28.466;-16.274;2023-08-07T05:20:04;95446.00;;;19.01;100.00
34031;BME280;20319;28.466;-16.274;2023-08-07T05:22:30;95446.94;;;19.05;100.00
34031;BME280;20319;28.466;-16.274;2023-08-07T05:24:56;95465.78;;;19.02;100.00
34031;BME280;20319;28.466;-16.274;2023-08-07T05:27:22;95313.81;;;18.24;100.00
34031;BME280;20319;28.466;-16.274;2023-08-07T05:29:47;95474.19;;;19.23;100.00
34031;BME280;20319;28.466;-16.274;2023-08-07T05:32:13;95441.19;;;18.98;100.00
34031;BME280;20319;28.466;-16.274;2023-08-07T05:34:40;95474.19;;;19.23;100.00
34031;BME280;20319;28.466;-16.274;2023-08-07T05:37:07;95478.50;;;19.24;100.00
34031;BME280;20319;28.466;-16.274;2023-08-07T05:39:34;95479.75;;;19.17;100.00
34031;BME280;20319;28.466;-16.274;2023-08-07T05:42:00;95323.53;;;18.25;100.00
34031;BME280;20319;28.466;-16.274;2023-08-07T05:44:27;95460.81;;;18.95;100.00
34031;BME280;20319;28.466;-16.274;2023-08-07T05:46:52;95468.06;;;19.08;100.00
34031;BME280;20319;28.466;-16.274;2023-08-07T05:49:18;95313.09;;;18.10;100.00
34031;BME280;20319;28.466;-16.274;2023-08-07T05:51:44;95479.25;;;19.07;100.00
34031;BME280;20319;28.466;-16.274;2023-08-07T05:54:10;95431.72;;;18.87;100.00
34031;BME280;20319;28.466;-16.274;2023-08-07T05:56:37;95312.47;;;18.13;100.00
34031;BME280;20319;28.466;-16.274;2023-08-07T05:59:03;95477.53;;;19.20;100.00
34031;BME280;20319;28.466;-16.274;2023-08-07T06:01:28;95444.09;;;19.02;100.00
34031;BME280;20319;28.466;-16.274;2023-08-07T06:03:57;95465.50;;;19.12;100.00
34031;BME280;20319;28.466;-16.274;2023-08-07T06:06:24;95311.75;;;18.29;100.00
34031;BME280;20319;28.466;-16.274;2023-08-07T06:08:50;95457.75;;;19.28;100.00
34031;BME280;20319;28.466;-16.274;2023-08-07T06:11:16;95433.78;;;19.21;100.00
34031;BME280;20319;28.466;-16.274;2023-08-07T06:13:43;95456.66;;;19.29;100.00
34031;BME280;20319;28.466;-16.274;2023-08-07T06:16:09;95443.34;;;19.18;100.00
34031;BME280;20319;28.466;-16.274;2023-08-07T06:18:34;95468.81;;;19.31;100.00
34031;BME280;20319;28.466;-16.274;2023-08-07T06:21:00;95304.38;;;18.43;100.00
34031;BME280;20319;28.466;-16.274;2023-08-07T06:23:25;95336.84;;;18.65;100.00
34031;BME280;20319;28.466;-16.274;2023-08-07T06:25:51;95490.16;;;19.55;100.00
34031;BME280;20319;28.466;-16.274;2023-08-07T06:28:17;95487.25;;;19.51;100.00
34031;BME280;20319;28.466;-16.274;2023-08-07T06:30:42;95498.09;;;19.43;100.00
34031;BME280;20319;28.466;-16.274;2023-08-07T06:33:08;95462.28;;;19.32;100.00
34031;BME280;20319;28.466;-16.274;2023-08-07T06:35:40;95316.94;;;18.39;100.00
34031;BME280;20319;28.466;-16.274;2023-08-07T06:38:07;95503.38;;;19.48;100.00
34031;BME280;20319;28.466;-16.274;2023-08-07T06:40:35;95494.41;;;19.39;100.00
34031;BME280;20319;28.466;-16.274;2023-08-07T06:43:00;95369.53;;;18.60;100.00
34031;BME280;20319;28.466;-16.274;2023-08-07T06:45:26;95499.22;;;19.42;100.00
34031;BME280;20319;28.466;-16.274;2023-08-07T06:47:52;95343.16;;;18.52;100.00
34031;BME280;20319;28.466;-16.274;2023-08-07T06:50:17;95487.50;;;19.33;100.00
34031;BME280;20319;28.466;-16.274;2023-08-07T06:52:43;95360.13;;;18.66;100.00
34031;BME280;20319;28.466;-16.274;2023-08-07T06:55:09;95495.22;;;19.48;100.00
34031;BME280;20319;28.466;-16.274;2023-08-07T06:57:34;95526.16;;;19.77;100.00
34031;BME280;20319;28.466;-16.274;2023-08-07T07:00:00;95533.16;;;19.70;100.00
34031;BME280;20319;28.466;-16.274;2023-08-07T07:02:26;95503.09;;;19.66;100.00
34031;BME280;20319;28.466;-16.274;2023-08-07T07:04:51;95538.81;;;19.82;100.00
34031;BME280;20319;28.466;-16.274;2023-08-07T07:07:17;95537.19;;;19.81;100.00
34031;BME280;20319;28.466;-16.274;2023-08-07T07:09:42;95529.38;;;19.88;100.00
34031;BME280;20319;28.466;-16.274;2023-08-07T07:12:08;95517.69;;;19.79;100.00
34031;BME280;20319;28.466;-16.274;2023-08-07T07:14:34;95535.16;;;19.95;100.00
34031;BME280;20319;28.466;-16.274;2023-08-07T07:16:59;95397.31;;;19.13;100.00
34031;BME280;20319;28.466;-16.274;2023-08-07T07:19:26;95537.41;;;20.01;100.00
34031;BME280;20319;28.466;-16.274;2023-08-07T07:21:51;95514.34;;;19.90;100.00
34031;BME280;20319;28.466;-16.274;2023-08-07T07:24:17;95402.53;;;19.32;100.00
34031;BME280;20319;28.466;-16.274;2023-08-07T07:26:43;95522.53;;;20.07;100.00
34031;BME280;20319;28.466;-16.274;2023-08-07T07:29:08;95536.19;;;20.16;100.00
34031;BME280;20319;28.466;-16.274;2023-08-07T07:31:34;95514.44;;;20.16;100.00
34031;BME280;20319;28.466;-16.274;2023-08-07T07:34:00;95523.06;;;20.26;100.00
34031;BME280;20319;28.466;-16.274;2023-08-07T07:36:25;95552.19;;;20.43;100.00
34031;BME280;20319;28.466;-16.274;2023-08-07T07:38:51;95367.22;;;19.32;100.00
34031;BME280;20319;28.466;-16.274;2023-08-07T07:41:17;95542.91;;;20.44;100.00
34031;BME280;20319;28.466;-16.274;2023-08-07T07:43:44;95520.34;;;20.35;100.00
34031;BME280;20319;28.466;-16.274;2023-08-07T07:46:09;95544.03;;;20.43;100.00
34031;BME280;20319;28.466;-16.274;2023-08-07T07:48:35;95531.56;;;20.42;100.00
34031;BME280;20319;28.466;-16.274;2023-08-07T07:51:01;95552.03;;;20.65;100.00
34031;BME280;20319;28.466;-16.274;2023-08-07T07:53:27;95530.44;;;20.51;99.47
34031;BME280;20319;28.466;-16.274;2023-08-07T07:55:53;95539.88;;;20.71;99.05
34031;BME280;20319;28.466;-16.274;2023-08-07T07:58:19;95534.25;;;20.76;97.75
34031;BME280;20319;28.466;-16.274;2023-08-07T08:00:45;95534.91;;;20.82;96.51
34031;BME280;20319;28.466;-16.274;2023-08-07T08:03:11;95549.47;;;20.94;95.86
34031;BME280;20319;28.466;-16.274;2023-08-07T08:05:38;95553.97;;;21.07;95.90
34031;BME280;20319;28.466;-16.274;2023-08-07T08:08:04;95524.50;;;21.01;95.66
34031;BME280;20319;28.466;-16.274;2023-08-07T08:10:30;95538.88;;;21.18;95.91
34031;BME280;20319;28.466;-16.274;2023-08-07T08:12:56;95540.72;;;21.43;95.49
34031;BME280;20319;28.466;-16.274;2023-08-07T08:15:22;95524.88;;;21.37;94.44
34031;BME280;20319;28.466;-16.274;2023-08-07T08:17:48;95435.78;;;20.91;93.39
34031;BME280;20319;28.466;-16.274;2023-08-07T08:20:14;95529.78;;;21.52;92.94
34031;BME280;20319;28.466;-16.274;2023-08-07T08:22:46;95537.31;;;21.55;91.77
34031;BME280;20319;28.466;-16.274;2023-08-07T08:25:11;95548.81;;;21.60;90.95
34031;BME280;20319;28.466;-16.274;2023-08-07T08:27:38;95411.13;;;20.79;89.67
34031;BME280;20319;28.466;-16.274;2023-08-07T08:30:04;95548.31;;;21.67;88.99
34031;BME280;20319;28.466;-16.274;2023-08-07T08:32:30;95429.66;;;20.94;88.38
34031;BME280;20319;28.466;-16.274;2023-08-07T08:34:56;95567.00;;;21.85;87.01
34031;BME280;20319;28.466;-16.274;2023-08-07T08:37:22;95410.28;;;21.04;86.29
34031;BME280;20319;28.466;-16.274;2023-08-07T08:39:48;95550.91;;;22.01;86.19
34031;BME280;20319;28.466;-16.274;2023-08-07T08:42:14;95567.19;;;22.39;84.61
34031;BME280;20319;28.466;-16.274;2023-08-07T08:45:01;95431.44;;;21.65;83.32
34031;BME280;20319;28.466;-16.274;2023-08-07T08:47:29;95563.75;;;22.50;83.32
34031;BME280;20319;28.466;-16.274;2023-08-07T08:50:12;95549.94;;;22.47;81.77
34031;BME280;20319;28.466;-16.274;2023-08-07T08:52:41;95590.94;;;22.67;81.07
34031;BME280;20319;28.466;-16.274;2023-08-07T08:55:08;95562.28;;;22.53;79.98
34031;BME280;20319;28.466;-16.274;2023-08-07T08:57:34;95545.81;;;22.41;80.04
34031;BME280;20319;28.466;-16.274;2023-08-07T09:00:01;95585.13;;;22.69;80.00
34031;BME280;20319;28.466;-16.274;2023-08-07T09:02:32;95606.91;;;22.77;79.90
34031;BME280;20319;28.466;-16.274;2023-08-07T09:04:57;95449.66;;;22.03;78.79
34031;BME280;20319;28.466;-16.274;2023-08-07T09:07:23;95584.53;;;22.84;78.75
34031;BME280;20319;28.466;-16.274;2023-08-07T09:09:49;95580.00;;;22.88;78.27
34031;BME280;20319;28.466;-16.274;2023-08-07T09:12:20;95565.97;;;22.77;77.72
34031;BME280;20319;28.466;-16.274;2023-08-07T09:14:50;95582.53;;;22.72;77.48
34031;BME280;20319;28.466;-16.274;2023-08-07T09:17:17;95587.06;;;22.89;78.25
34031;BME280;20319;28.466;-16.274;2023-08-07T09:19:43;95578.66;;;22.94;78.46
34031;BME280;20319;28.466;-16.274;2023-08-07T09:22:09;95569.84;;;23.09;78.78
34031;BME280;20319;28.466;-16.274;2023-08-07T09:24:35;95560.38;;;23.06;78.63
34031;BME280;20319;28.466;-16.274;2023-08-07T09:27:00;95335.19;;;21.53;78.62
34031;BME280;20319;28.466;-16.274;2023-08-07T09:29:26;95579.09;;;22.84;79.16
34031;BME280;20319;28.466;-16.274;2023-08-07T09:31:54;95501.97;;;22.05;79.55
34031;BME280;20319;28.466;-16.274;2023-08-07T09:34:20;95576.69;;;22.33;80.41
34031;BME280;20319;28.466;-16.274;2023-08-07T09:36:46;95610.00;;;22.47;80.98
34031;BME280;20319;28.466;-16.274;2023-08-07T09:39:12;95592.13;;;22.49;81.53
34031;BME280;20319;28.466;-16.274;2023-08-07T09:41:37;95598.66;;;22.65;81.79
34031;BME280;20319;28.466;-16.274;2023-08-07T09:44:07;95594.28;;;22.73;81.47
34031;BME280;20319;28.466;-16.274;2023-08-07T09:46:41;95401.97;;;21.59;81.00
34031;BME280;20319;28.466;-16.274;2023-08-07T09:49:07;95581.69;;;22.60;79.59
34031;BME280;20319;28.466;-16.274;2023-08-07T09:51:47;95413.53;;;21.56;79.79
34031;BME280;20319;28.466;-16.274;2023-08-07T09:54:13;95604.28;;;22.60;80.69
34031;BME280;20319;28.466;-16.274;2023-08-07T09:56:43;95569.19;;;22.50;80.37
34031;BME280;20319;28.466;-16.274;2023-08-07T09:59:08;95550.72;;;22.56;79.60
34031;BME280;20319;28.466;-16.274;2023-08-07T10:01:36;95463.38;;;22.15;78.69
34031;BME280;20319;28.466;-16.274;2023-08-07T10:04:05;95561.72;;;23.00;78.78
34031;BME280;20319;28.466;-16.274;2023-08-07T10:06:31;95596.63;;;23.36;77.96
34031;BME280;20319;28.466;-16.274;2023-08-07T10:08:57;95597.50;;;23.28;77.11
34031;BME280;20319;28.466;-16.274;2023-08-07T10:11:23;95580.91;;;23.33;76.82
34031;BME280;20319;28.466;-16.274;2023-08-07T10:13:49;95582.41;;;23.43;77.11
34031;BME280;20319;28.466;-16.274;2023-08-07T10:16:15;95558.25;;;23.45;76.20
34031;BME280;20319;28.466;-16.274;2023-08-07T10:18:41;95568.75;;;23.55;76.01
34031;BME280;20319;28.466;-16.274;2023-08-07T10:21:07;95468.31;;;23.07;76.28
34031;BME280;20319;28.466;-16.274;2023-08-07T10:23:35;95557.59;;;23.72;76.20
34031;BME280;20319;28.466;-16.274;2023-08-07T10:26:06;95572.53;;;23.86;76.12
34031;BME280;20319;28.466;-16.274;2023-08-07T10:28:37;95426.78;;;23.01;75.41
34031;BME280;20319;28.466;-16.274;2023-08-07T10:31:05;95603.84;;;24.09;75.51
34031;BME280;20319;28.466;-16.274;2023-08-07T10:33:32;95585.94;;;24.00;75.79
34031;BME280;20319;28.466;-16.274;2023-08-07T10:35:58;95461.34;;;23.54;74.81
34031;BME280;20319;28.466;-16.274;2023-08-07T10:38:29;95470.00;;;23.80;74.27
34031;BME280;20319;28.466;-16.274;2023-08-07T10:41:03;95458.81;;;23.85;73.47
34031;BME280;20319;28.466;-16.274;2023-08-07T10:43:36;95610.06;;;24.82;73.29
34031;BME280;20319;28.466;-16.274;2023-08-07T10:46:08;95593.03;;;24.89;73.82
34031;BME280;20319;28.466;-16.274;2023-08-07T10:48:45;95568.91;;;24.66;73.20
34031;BME280;20319;28.466;-16.274;2023-08-07T10:51:16;95604.69;;;24.73;74.50
34031;BME280;20319;28.466;-16.274;2023-08-07T10:53:45;95463.53;;;23.97;74.32
34031;BME280;20319;28.466;-16.274;2023-08-07T10:56:18;95579.16;;;24.69;74.25
34031;BME280;20319;28.466;-16.274;2023-08-07T10:58:54;95608.53;;;24.85;74.57
34031;BME280;20319;28.466;-16.274;2023-08-07T11:01:22;95627.94;;;25.04;74.45
34031;BME280;20319;28.466;-16.274;2023-08-07T11:06:18;95617.69;;;24.89;74.97
34031;BME280;20319;28.466;-16.274;2023-08-07T11:08:48;95634.66;;;24.94;75.70
34031;BME280;20319;28.466;-16.274;2023-08-07T11:11:14;95483.75;;;23.96;75.48
34031;BME280;20319;28.466;-16.274;2023-08-07T11:13:39;95624.91;;;24.81;75.03
34031;BME280;20319;28.466;-16.274;2023-08-07T11:16:05;95500.75;;;24.13;74.97
34031;BME280;20319;28.466;-16.274;2023-08-07T11:18:32;95596.69;;;24.81;75.15
34031;BME280;20319;28.466;-16.274;2023-08-07T11:20:58;95602.41;;;24.88;74.90
34031;BME280;20319;28.466;-16.274;2023-08-07T11:23:25;95632.72;;;24.95;76.06
34031;BME280;20319;28.466;-16.274;2023-08-07T11:25:52;95541.56;;;24.30;75.96
34031;BME280;20319;28.466;-16.274;2023-08-07T11:28:21;95531.34;;;24.03;76.31
34031;BME280;20319;28.466;-16.274;2023-08-07T11:30:52;95619.19;;;24.86;76.06
34031;BME280;20319;28.466;-16.274;2023-08-07T11:33:24;95605.56;;;24.90;74.86
34031;BME280;20319;28.466;-16.274;2023-08-07T11:35:51;95489.16;;;23.92;74.77
34031;BME280;20319;28.466;-16.274;2023-08-07T11:38:38;95610.63;;;24.51;74.76
34031;BME280;20319;28.466;-16.274;2023-08-07T11:41:06;95641.81;;;24.71;74.68
34031;BME280;20319;28.466;-16.274;2023-08-07T11:43:33;95617.91;;;24.96;73.56
34031;BME280;20319;28.466;-16.274;2023-08-07T11:46:04;95599.63;;;25.00;71.71
34031;BME280;20319;28.466;-16.274;2023-08-07T11:48:32;95619.88;;;25.23;71.84
34031;BME280;20319;28.466;-16.274;2023-08-07T11:51:00;95642.41;;;25.44;71.03
34031;BME280;20319;28.466;-16.274;2023-08-07T11:53:27;95501.13;;;24.91;69.86
34031;BME280;20319;28.466;-16.274;2023-08-07T11:56:11;95487.88;;;24.93;68.59
34031;BME280;20319;28.466;-16.274;2023-08-07T11:58:41;95618.09;;;26.01;68.11
34031;BME280;20319;28.466;-16.274;2023-08-07T12:01:20;95477.19;;;25.47;66.76
34031;BME280;20319;28.466;-16.274;2023-08-07T12:06:19;95481.19;;;25.49;65.29
34031;BME280;20319;28.466;-16.274;2023-08-07T12:08:44;95589.66;;;25.78;65.42
34031;BME280;20319;28.466;-16.274;2023-08-07T12:11:11;95596.13;;;25.70;66.04
34031;BME280;20319;28.466;-16.274;2023-08-07T12:13:39;95611.97;;;25.76;66.60
34031;BME280;20319;28.466;-16.274;2023-08-07T12:16:05;95583.69;;;25.45;66.74
34031;BME280;20319;28.466;-16.274;2023-08-07T12:18:31;95588.09;;;25.22;67.34
34031;BME280;20319;28.466;-16.274;2023-08-07T12:21:01;95474.75;;;24.19;67.72
34031;BME280;20319;28.466;-16.274;2023-08-07T12:23:28;95473.31;;;23.98;68.91
34031;BME280;20319;28.466;-16.274;2023-08-07T12:25:54;95570.28;;;24.36;69.75
34031;BME280;20319;28.466;-16.274;2023-08-07T12:28:20;95435.00;;;23.25;70.34
34031;BME280;20319;28.466;-16.274;2023-08-07T12:30:46;95575.28;;;23.86;71.64
34031;BME280;20319;28.466;-16.274;2023-08-07T12:33:13;95595.91;;;23.84;71.88
34031;BME280;20319;28.466;-16.274;2023-08-07T12:35:39;95570.13;;;23.61;72.62
34031;BME280;20319;28.466;-16.274;2023-08-07T12:38:05;95535.88;;;23.30;72.56